createdAt,value
2023-01-27T00:00:39.207Z,65.60
2023-01-27T00:03:07.055Z,64.37
2023-01-27T00:05:34.232Z,62.32
2023-01-27T00:08:01.278Z,60.41
2023-01-27T00:10:28.320Z,59.64
2023-01-27T00:13:14.097Z,57.86
2023-01-27T00:15:41.083Z,57.62
2023-01-27T00:18:08.101Z,59.25
2023-01-27T00:20:55.627Z,60.50
2023-01-27T00:23:44.565Z,63.94
2023-01-27T00:26:14.921Z,65.89
2023-01-27T00:28:44.108Z,64.35
2023-01-27T00:31:33.149Z,62.88
2023-01-27T00:34:09.402Z,61.66
2023-01-27T00:36:40.826Z,60.30
2023-01-27T00:39:09.260Z,58.04
2023-01-27T00:41:36.658Z,57.36
2023-01-27T00:44:05.935Z,58.78
2023-01-27T00:46:33.632Z,59.71
2023-01-27T00:49:01.666Z,60.88
2023-01-27T00:51:28.477Z,64.24
2023-01-27T00:53:55.681Z,66.06
2023-01-27T00:56:22.566Z,65.00
2023-01-27T00:58:49.477Z,63.30
2023-01-27T01:01:17.793Z,61.34
2023-01-27T01:03:46.132Z,59.99
2023-01-27T01:06:16.051Z,58.78
2023-01-27T01:08:43.511Z,58.89
2023-01-27T01:11:14.392Z,60.57
2023-01-27T01:13:42.739Z,63.52
2023-01-27T01:16:16.162Z,65.71
2023-01-27T01:18:43.997Z,64.66
2023-01-27T01:21:12.892Z,62.69
2023-01-27T01:23:45.164Z,61.43
2023-01-27T01:26:14.758Z,60.50
2023-01-27T01:28:42.032Z,60.05
2023-01-27T01:31:12.011Z,58.33
2023-01-27T01:33:39.434Z,57.45
2023-01-27T01:36:11.786Z,59.17
2023-01-27T01:38:38.948Z,61.56
2023-01-27T01:41:08.067Z,65.17
2023-01-27T01:43:35.323Z,66.18
2023-01-27T01:46:02.660Z,64.10
2023-01-27T01:48:38.514Z,62.72
2023-01-27T01:51:21.634Z,61.99
2023-01-27T01:54:04.041Z,61.15
2023-01-27T01:56:42.453Z,59.84
2023-01-27T01:59:17.900Z,58.53
2023-01-27T02:01:45.466Z,60.00
2023-01-27T02:04:18.243Z,61.20
2023-01-27T02:06:53.785Z,66.30
2023-01-27T02:09:22.377Z,66.56
2023-01-27T02:11:52.849Z,64.81
2023-01-27T02:14:19.965Z,64.05
2023-01-27T02:16:47.176Z,63.99
2023-01-27T02:19:32.904Z,63.35
2023-01-27T02:22:03.550Z,62.60
2023-01-27T02:24:38.369Z,61.60
2023-01-27T02:27:05.513Z,60.90
2023-01-27T02:29:32.474Z,60.19
2023-01-27T02:31:59.414Z,58.51
2023-01-27T02:34:30.335Z,58.13
2023-01-27T02:37:02.216Z,59.50
2023-01-27T02:39:37.872Z,63.44
2023-01-27T02:42:07.806Z,65.18
2023-01-27T02:44:34.940Z,64.43
2023-01-27T02:47:02.811Z,64.40
2023-01-27T02:49:29.690Z,62.51
2023-01-27T02:51:56.817Z,61.49
2023-01-27T02:54:27.962Z,60.63
2023-01-27T02:56:54.913Z,59.78
2023-01-27T02:59:22.581Z,58.30
2023-01-27T03:01:49.672Z,58.26
2023-01-27T03:04:16.683Z,59.65
2023-01-27T03:06:44.047Z,61.62
2023-01-27T03:09:11.106Z,64.61
2023-01-27T03:11:56.883Z,66.50
2023-01-27T03:14:42.667Z,65.38
2023-01-27T03:17:34.223Z,63.81
2023-01-27T03:20:04.764Z,62.36
2023-01-27T03:22:34.789Z,60.73
2023-01-27T03:25:01.827Z,60.14
2023-01-27T03:27:28.774Z,59.85
2023-01-27T03:30:21.818Z,58.57
2023-01-27T03:33:08.932Z,58.66
2023-01-27T03:36:13.655Z,62.90
2023-01-27T03:39:05.690Z,65.95
2023-01-27T03:41:52.051Z,65.13
2023-01-27T03:44:37.833Z,63.75
2023-01-27T03:47:04.683Z,62.06
2023-01-27T03:49:31.636Z,61.00
2023-01-27T03:51:59.196Z,60.91
2023-01-27T03:54:26.371Z,60.93
2023-01-27T03:56:53.303Z,61.00
2023-01-27T03:59:20.354Z,60.66
2023-01-27T04:01:47.236Z,60.22
2023-01-27T04:04:33.288Z,59.99
2023-01-27T04:07:03.187Z,59.86
2023-01-27T04:09:34.173Z,58.72
2023-01-27T04:12:04.615Z,58.34
2023-01-27T04:14:39.510Z,59.86
2023-01-27T04:17:08.207Z,63.14
2023-01-27T04:19:35.150Z,65.67
2023-01-27T04:22:04.152Z,64.90
2023-01-27T04:24:31.303Z,63.83
2023-01-27T04:27:04.064Z,63.03
2023-01-27T04:29:37.303Z,62.33
2023-01-27T04:32:09.553Z,61.74
2023-01-27T04:34:37.638Z,61.28
2023-01-27T04:37:05.828Z,60.70
2023-01-27T04:39:33.681Z,60.25
2023-01-27T04:42:00.781Z,60.07
2023-01-27T04:44:30.341Z,58.89
2023-01-27T04:46:57.299Z,58.35
2023-01-27T04:49:26.997Z,59.78
2023-01-27T04:51:54.957Z,63.19
2023-01-27T04:54:21.850Z,65.75
2023-01-27T04:57:00.464Z,65.05
2023-01-27T04:59:27.806Z,63.85
2023-01-27T05:01:55.010Z,62.90
2023-01-27T05:04:22.121Z,62.16
2023-01-27T05:06:49.388Z,61.69
2023-01-27T05:09:16.537Z,61.06
2023-01-27T05:11:43.340Z,60.36
2023-01-27T05:14:10.426Z,60.33
2023-01-27T05:16:39.094Z,60.76
2023-01-27T05:19:06.067Z,60.88
2023-01-27T05:21:33.020Z,60.63
2023-01-27T05:24:00.031Z,60.29
2023-01-27T05:26:28.561Z,59.81
2023-01-27T05:28:57.940Z,59.92
2023-01-27T05:31:29.063Z,60.07
2023-01-27T05:33:59.194Z,60.08
2023-01-27T05:36:27.012Z,59.85
2023-01-27T05:38:55.197Z,59.68
2023-01-27T05:41:23.255Z,59.79
2023-01-27T05:43:55.320Z,60.05
2023-01-27T05:46:25.271Z,60.17
2023-01-27T05:48:59.208Z,60.07
2023-01-27T05:51:29.272Z,59.97
2023-01-27T05:53:56.232Z,59.81
2023-01-27T05:56:24.015Z,58.76
2023-01-27T05:58:51.002Z,58.13
2023-01-27T06:01:21.502Z,59.43
2023-01-27T06:03:49.354Z,60.77
2023-01-27T06:06:18.634Z,64.42
2023-01-27T06:08:46.328Z,66.83
2023-01-27T06:11:15.524Z,65.99
2023-01-27T06:13:43.094Z,64.71
2023-01-27T06:16:12.542Z,63.49
2023-01-27T06:18:39.854Z,62.58
2023-01-27T06:21:09.052Z,61.91
2023-01-27T06:23:36.315Z,61.40
2023-01-27T06:26:15.929Z,61.08
2023-01-27T06:28:42.902Z,60.76
2023-01-27T06:31:13.347Z,60.32
2023-01-27T06:33:40.793Z,60.09
2023-01-27T06:36:13.275Z,58.77
2023-01-27T06:38:40.627Z,58.24
2023-01-27T06:41:08.004Z,59.56
2023-01-27T06:43:35.147Z,62.89
2023-01-27T06:46:05.375Z,65.57
2023-01-27T06:48:33.749Z,65.02
2023-01-27T06:51:01.566Z,63.72
2023-01-27T06:53:28.677Z,62.56
2023-01-27T06:56:00.454Z,61.72
2023-01-27T06:58:27.898Z,61.08
2023-01-27T07:00:55.970Z,60.41
2023-01-27T07:03:23.414Z,59.89
2023-01-27T07:05:50.798Z,58.10
2023-01-27T07:08:17.747Z,57.57
2023-01-27T07:10:44.701Z,58.81
2023-01-27T07:13:14.781Z,60.04
2023-01-27T07:15:41.988Z,63.10
2023-01-27T07:18:11.074Z,65.39
2023-01-27T07:20:38.134Z,64.28
2023-01-27T07:23:05.815Z,62.49
2023-01-27T07:25:34.616Z,60.99
2023-01-27T07:28:03.144Z,58.77
2023-01-27T07:30:31.252Z,57.40
2023-01-27T07:33:09.160Z,58.10
2023-01-27T07:35:37.747Z,59.72
2023-01-27T07:38:06.231Z,60.97
2023-01-27T07:40:33.784Z,63.38
2023-01-27T07:43:01.756Z,64.70
2023-01-27T07:45:29.813Z,62.78
2023-01-27T07:48:04.265Z,60.07
2023-01-27T07:50:31.365Z,56.75
2023-01-27T07:53:02.769Z,56.04
2023-01-27T07:55:30.946Z,56.83
2023-01-27T07:57:58.092Z,57.51
2023-01-27T08:00:25.692Z,58.57
2023-01-27T08:02:53.811Z,59.48
2023-01-27T08:05:21.713Z,60.01
2023-01-27T08:07:49.790Z,60.63
2023-01-27T08:10:19.101Z,63.21
2023-01-27T08:12:47.295Z,63.89
2023-01-27T08:15:17.672Z,62.15
2023-01-27T08:17:53.777Z,60.57
2023-01-27T08:20:20.916Z,58.00
2023-01-27T08:22:47.874Z,56.90
2023-01-27T08:25:15.043Z,57.79
2023-01-27T08:27:42.179Z,59.17
2023-01-27T08:30:12.562Z,60.03
2023-01-27T08:32:40.178Z,60.78
2023-01-27T08:35:07.737Z,63.64
2023-01-27T08:37:35.809Z,64.09
2023-01-27T08:40:03.937Z,60.86
2023-01-27T08:42:30.856Z,58.55
2023-01-27T08:44:58.507Z,57.40
2023-01-27T08:47:25.559Z,58.37
2023-01-27T08:49:54.694Z,59.53
2023-01-27T08:52:23.241Z,60.78
2023-01-27T08:54:50.201Z,61.32
2023-01-27T08:57:17.247Z,63.38
2023-01-27T08:59:46.471Z,63.72
2023-01-27T09:02:14.645Z,61.36
2023-01-27T09:04:44.772Z,57.96
2023-01-27T09:07:12.035Z,56.09
2023-01-27T09:09:40.599Z,56.75
2023-01-27T09:12:07.940Z,57.24
2023-01-27T09:14:35.629Z,58.17
2023-01-27T09:17:02.573Z,58.58
2023-01-27T09:19:29.736Z,58.56
2023-01-27T09:21:56.782Z,58.47
2023-01-27T09:24:24.060Z,58.59
2023-01-27T09:26:51.077Z,59.28
2023-01-27T09:29:18.249Z,60.22
2023-01-27T09:31:45.327Z,60.36
2023-01-27T09:34:12.576Z,61.03
2023-01-27T09:36:47.189Z,61.12
2023-01-27T09:39:17.279Z,61.34
2023-01-27T09:41:54.701Z,63.76
2023-01-27T09:44:25.539Z,63.15
2023-01-27T09:47:04.267Z,60.48
2023-01-27T09:49:59.549Z,56.32
2023-01-27T09:53:04.171Z,55.03
2023-01-27T09:55:46.371Z,55.78
2023-01-27T09:58:26.214Z,56.32
2023-01-27T10:01:02.169Z,57.10
2023-01-27T10:03:35.251Z,57.30
2023-01-27T10:06:17.246Z,57.80
2023-01-27T10:09:04.360Z,57.94
2023-01-27T10:11:53.613Z,57.79
2023-01-27T10:15:06.097Z,58.42
2023-01-27T10:17:38.881Z,58.42
2023-01-27T10:20:17.915Z,58.89
2023-01-27T10:22:54.073Z,59.22
2023-01-27T10:25:50.387Z,59.56
2023-01-27T10:28:28.289Z,59.36
2023-01-27T10:31:06.351Z,59.64
2023-01-27T10:33:42.459Z,59.94
2023-01-27T10:36:34.381Z,59.98
2023-01-27T10:39:26.802Z,59.81
2023-01-27T10:42:24.058Z,59.93
2023-01-27T10:45:01.851Z,59.78
2023-01-27T10:47:57.343Z,60.10
2023-01-27T10:50:43.939Z,60.35
2023-01-27T10:53:17.681Z,60.59
2023-01-27T10:56:01.787Z,61.08
2023-01-27T10:58:55.665Z,61.05
2023-01-27T11:01:31.125Z,61.67
2023-01-27T11:04:09.242Z,63.73
2023-01-27T11:06:40.483Z,63.30
2023-01-27T11:09:26.659Z,58.81
2023-01-27T11:11:58.545Z,56.26
2023-01-27T11:14:32.586Z,55.93
2023-01-27T11:17:32.729Z,56.57
2023-01-27T11:20:05.520Z,57.20
2023-01-27T11:22:54.008Z,57.96
2023-01-27T11:25:34.724Z,57.96
2023-01-27T11:28:23.575Z,58.14
2023-01-27T11:31:25.462Z,58.32
2023-01-27T11:34:37.279Z,58.37
2023-01-27T11:37:32.113Z,57.66
2023-01-27T11:39:59.750Z,57.70
2023-01-27T11:42:36.109Z,57.55
2023-01-27T11:45:03.904Z,57.31
2023-01-27T11:47:39.338Z,57.26
2023-01-27T11:50:09.251Z,56.83
2023-01-27T11:52:36.302Z,56.87
2023-01-27T11:55:06.792Z,56.01
2023-01-27T11:57:39.123Z,54.18
2023-01-27T12:00:20.175Z,54.24
2023-01-27T12:03:14.031Z,54.12
2023-01-27T12:06:00.329Z,53.72
2023-01-27T12:08:45.986Z,52.89
2023-01-27T12:11:25.639Z,52.44
2023-01-27T12:14:01.393Z,52.24
2023-01-27T12:16:46.581Z,51.82
2023-01-27T12:19:21.496Z,51.65
2023-01-27T12:21:52.633Z,51.91
2023-01-27T12:24:35.161Z,51.69
2023-01-27T12:27:04.618Z,50.73
2023-01-27T12:29:42.611Z,50.98
2023-01-27T12:32:25.337Z,51.37
2023-01-27T12:34:57.273Z,51.48
2023-01-27T12:37:34.619Z,51.77
2023-01-27T12:40:05.324Z,52.06
2023-01-27T12:42:36.445Z,52.30
2023-01-27T12:45:20.581Z,52.79
2023-01-27T12:48:12.973Z,53.40
2023-01-27T12:50:52.940Z,53.90
2023-01-27T12:53:30.720Z,54.39
2023-01-27T12:56:15.317Z,54.90
2023-01-27T12:58:46.007Z,55.52
2023-01-27T13:01:21.963Z,55.91
2023-01-27T13:04:20.747Z,56.71
2023-01-27T13:06:56.815Z,57.13
2023-01-27T13:09:51.987Z,58.46
2023-01-27T13:12:25.277Z,59.55
2023-01-27T13:14:56.052Z,60.32
2023-01-27T13:17:30.490Z,61.03
2023-01-27T13:20:02.111Z,61.91
2023-01-27T13:22:45.449Z,62.28
2023-01-27T13:25:21.602Z,65.16
2023-01-27T13:27:51.048Z,65.69
2023-01-27T13:30:47.323Z,62.78
2023-01-27T13:33:41.692Z,60.91
2023-01-27T13:36:31.255Z,57.22
2023-01-27T13:39:04.871Z,58.52
2023-01-27T13:41:43.161Z,61.76
2023-01-27T13:44:25.881Z,64.43
2023-01-27T13:46:57.848Z,64.47
2023-01-27T13:49:44.023Z,62.37
2023-01-27T13:52:12.987Z,59.72
2023-01-27T13:54:40.395Z,58.20
2023-01-27T13:57:19.727Z,58.67
2023-01-27T14:00:03.954Z,60.65
2023-01-27T14:03:01.854Z,62.14
2023-01-27T14:05:31.937Z,65.40
2023-01-27T14:08:11.136Z,65.10
2023-01-27T14:11:01.062Z,62.69
2023-01-27T14:13:27.991Z,61.76
2023-01-27T14:16:08.320Z,60.56
2023-01-27T14:18:49.656Z,58.77
2023-01-27T14:21:25.006Z,59.56
2023-01-27T14:24:05.681Z,61.73
2023-01-27T14:26:48.371Z,65.53
2023-01-27T14:29:27.262Z,66.16
2023-01-27T14:32:13.680Z,63.87
2023-01-27T14:35:12.031Z,62.30
2023-01-27T14:38:04.284Z,61.27
2023-01-27T14:40:42.745Z,60.29
2023-01-27T14:43:18.931Z,58.73
2023-01-27T14:45:57.165Z,58.83
2023-01-27T14:48:49.156Z,61.22
2023-01-27T14:51:29.764Z,65.19
2023-01-27T14:53:56.772Z,65.28
2023-01-27T14:56:39.073Z,63.80
2023-01-27T14:59:09.618Z,62.02
2023-01-27T15:01:48.571Z,60.80
2023-01-27T15:04:37.897Z,60.30
2023-01-27T15:07:29.842Z,60.90
2023-01-27T15:10:06.598Z,59.98
2023-01-27T15:12:53.390Z,58.09
2023-01-27T15:15:42.552Z,58.58
2023-01-27T15:18:21.896Z,60.62
2023-01-27T15:20:55.078Z,63.71
2023-01-27T15:24:10.596Z,65.65
2023-01-27T15:26:39.408Z,63.85
2023-01-27T15:29:07.529Z,61.83
2023-01-27T15:31:34.737Z,60.62
2023-01-27T15:34:05.349Z,59.17
2023-01-27T15:36:37.308Z,59.01
2023-01-27T15:39:10.657Z,60.50
2023-01-27T15:41:54.696Z,64.10
2023-01-27T15:44:24.980Z,65.37
2023-01-27T15:46:55.024Z,63.95
2023-01-27T15:49:29.273Z,62.81
2023-01-27T15:52:09.824Z,61.25
2023-01-27T15:54:42.106Z,60.77
2023-01-27T15:57:43.013Z,59.81
2023-01-27T16:00:16.533Z,58.38
2023-01-27T16:02:52.276Z,59.58
2023-01-27T16:05:27.000Z,60.54
2023-01-27T16:08:00.018Z,64.92
2023-01-27T16:10:33.904Z,66.12
2023-01-27T16:13:35.575Z,64.68
2023-01-27T16:16:17.561Z,63.11
2023-01-27T16:18:49.795Z,61.62
2023-01-27T16:21:49.646Z,60.99
2023-01-27T16:24:25.877Z,60.94
2023-01-27T16:27:08.803Z,61.05
2023-01-27T16:29:42.797Z,60.23
2023-01-27T16:32:25.805Z,58.65
2023-01-27T16:34:58.717Z,58.88
2023-01-27T16:37:44.169Z,60.54
2023-01-27T16:40:20.049Z,64.41
2023-01-27T16:42:53.011Z,65.48
2023-01-27T16:45:24.354Z,64.09
2023-01-27T16:48:06.973Z,63.10
2023-01-27T16:50:36.710Z,62.23
2023-01-27T16:53:25.858Z,60.98
2023-01-27T16:55:58.258Z,60.68
2023-01-27T16:58:39.844Z,60.16
2023-01-27T17:01:47.065Z,59.88
2023-01-27T17:04:20.752Z,58.40
2023-01-27T17:06:50.081Z,59.40
2023-01-27T17:09:20.198Z,60.41
2023-01-27T17:11:47.499Z,64.13
2023-01-27T17:14:30.015Z,66.15
2023-01-27T17:17:01.450Z,64.81
2023-01-27T17:19:36.986Z,63.08
2023-01-27T17:22:19.459Z,62.21
2023-01-27T17:24:53.279Z,61.33
2023-01-27T17:27:28.134Z,60.47
2023-01-27T17:30:02.095Z,60.37
2023-01-27T17:32:34.903Z,60.04
2023-01-27T17:35:05.954Z,58.49
2023-01-27T17:37:33.503Z,58.24
2023-01-27T17:40:15.598Z,60.00
2023-01-27T17:42:43.061Z,63.84
2023-01-27T17:45:30.589Z,65.51
2023-01-27T17:47:59.969Z,64.44
2023-01-27T17:50:33.486Z,62.72
2023-01-27T17:53:00.983Z,62.14
2023-01-27T17:55:31.377Z,61.40
2023-01-27T17:58:17.772Z,60.94
2023-01-27T18:00:46.933Z,60.62
2023-01-27T18:03:22.934Z,60.46
2023-01-27T18:05:53.461Z,60.00
2023-01-27T18:08:22.441Z,58.72
2023-01-27T18:10:50.961Z,58.05
2023-01-27T18:13:21.169Z,59.45
2023-01-27T18:16:00.627Z,61.30
2023-01-27T18:18:33.080Z,65.13
2023-01-27T18:21:00.054Z,66.78
2023-01-27T18:23:30.832Z,65.35
2023-01-27T18:26:14.301Z,64.40
2023-01-27T18:28:42.470Z,63.46
2023-01-27T18:31:22.187Z,62.81
2023-01-27T18:34:34.504Z,62.10
2023-01-27T18:37:04.527Z,61.88
2023-01-27T18:39:38.104Z,61.21
2023-01-27T18:42:14.897Z,60.68
2023-01-27T18:44:42.605Z,60.33
2023-01-27T18:47:18.626Z,59.68
2023-01-27T18:50:06.833Z,58.40
2023-01-27T18:52:33.823Z,58.48
2023-01-27T18:55:19.789Z,60.10
2023-01-27T18:57:52.796Z,64.12
2023-01-27T19:00:22.775Z,66.05
2023-01-27T19:02:53.520Z,65.03
2023-01-27T19:05:33.106Z,64.09
2023-01-27T19:08:00.760Z,63.19
2023-01-27T19:10:30.372Z,62.40
2023-01-27T19:13:01.819Z,61.56
2023-01-27T19:15:34.823Z,61.06
2023-01-27T19:18:26.179Z,60.51
2023-01-27T19:20:53.676Z,60.28
2023-01-27T19:23:22.110Z,60.14
2023-01-27T19:25:56.349Z,59.97
2023-01-27T19:28:23.328Z,59.70
2023-01-27T19:30:50.327Z,58.21
2023-01-27T19:33:23.078Z,58.31
2023-01-27T19:36:00.367Z,60.93
2023-01-27T19:38:29.969Z,64.36
2023-01-27T19:40:56.916Z,66.05
2023-01-27T19:43:23.882Z,65.05
2023-01-27T19:45:52.697Z,63.95
2023-01-27T19:48:22.900Z,63.19
2023-01-27T19:50:52.315Z,62.59
2023-01-27T19:53:20.103Z,61.97
2023-01-27T19:55:48.650Z,61.13
2023-01-27T19:58:27.967Z,60.84
2023-01-27T20:00:56.266Z,60.57
2023-01-27T20:03:24.976Z,60.60
2023-01-27T20:05:52.094Z,60.47
2023-01-27T20:08:21.127Z,60.26
2023-01-27T20:10:48.244Z,60.05
2023-01-27T20:13:17.856Z,60.07
2023-01-27T20:15:46.406Z,60.04
2023-01-27T20:18:16.424Z,59.42
2023-01-27T20:20:44.400Z,58.28
2023-01-27T20:23:18.046Z,59.77
2023-01-27T20:25:45.740Z,63.50
2023-01-27T20:28:15.008Z,65.28
2023-01-27T20:30:42.701Z,64.58
2023-01-27T20:33:10.450Z,63.66
2023-01-27T20:35:38.242Z,62.77
2023-01-27T20:38:05.577Z,62.04
2023-01-27T20:40:32.837Z,61.59
2023-01-27T20:43:02.345Z,61.13
2023-01-27T20:45:29.292Z,61.00
2023-01-27T20:47:56.762Z,60.74
2023-01-27T20:50:26.041Z,60.41
2023-01-27T20:52:53.653Z,60.25
2023-01-27T20:55:20.685Z,60.18
2023-01-27T20:57:48.855Z,60.01
2023-01-27T21:00:21.403Z,59.86
2023-01-27T21:02:49.026Z,59.90
2023-01-27T21:05:17.153Z,59.70
2023-01-27T21:07:44.347Z,58.69
2023-01-27T21:10:14.058Z,59.07
2023-01-27T21:12:41.006Z,59.92
2023-01-27T21:15:10.106Z,64.06
2023-01-27T21:17:37.763Z,65.83
2023-01-27T21:20:06.385Z,65.26
2023-01-27T21:22:34.715Z,64.25
2023-01-27T21:25:01.724Z,63.28
2023-01-27T21:27:28.768Z,62.37
2023-01-27T21:29:55.890Z,62.02
2023-01-27T21:32:23.605Z,61.45
2023-01-27T21:34:51.444Z,61.21
2023-01-27T21:37:18.583Z,61.27
2023-01-27T21:39:45.644Z,61.21
2023-01-27T21:42:14.703Z,60.77
2023-01-27T21:45:00.514Z,60.65
2023-01-27T21:47:29.010Z,60.69
2023-01-27T21:50:02.117Z,60.28
2023-01-27T21:52:45.297Z,60.04
2023-01-27T21:55:15.851Z,59.86
2023-01-27T21:57:46.135Z,58.83
2023-01-27T22:00:16.529Z,58.69
2023-01-27T22:02:45.148Z,60.19
2023-01-27T22:05:13.241Z,64.02
2023-01-27T22:07:42.120Z,66.08
2023-01-27T22:10:15.710Z,65.02
2023-01-27T22:12:43.555Z,63.79
2023-01-27T22:15:14.562Z,62.94
2023-01-27T22:17:42.153Z,62.38
2023-01-27T22:20:13.519Z,61.98
2023-01-27T22:22:40.671Z,61.67
2023-01-27T22:25:08.404Z,61.50
2023-01-27T22:27:35.473Z,61.11
2023-01-27T22:30:02.533Z,60.95
2023-01-27T22:32:29.976Z,60.67
2023-01-27T22:34:57.013Z,60.48
2023-01-27T22:37:24.215Z,60.32
2023-01-27T22:39:51.864Z,60.21
2023-01-27T22:42:18.923Z,60.16
2023-01-27T22:44:46.260Z,60.25
2023-01-27T22:47:13.640Z,60.09
2023-01-27T22:49:40.962Z,59.79
2023-01-27T22:52:08.195Z,59.00
2023-01-27T22:54:37.268Z,58.56
2023-01-27T22:57:04.410Z,60.12
2023-01-27T22:59:31.460Z,64.00
2023-01-27T23:01:58.382Z,65.83
2023-01-27T23:04:25.688Z,65.04
2023-01-27T23:06:52.934Z,64.30
2023-01-27T23:09:20.096Z,63.57
2023-01-27T23:11:47.354Z,63.00
2023-01-27T23:14:14.421Z,62.46
2023-01-27T23:16:41.658Z,61.88
2023-01-27T23:19:10.644Z,61.92
2023-01-27T23:21:38.108Z,61.84
2023-01-27T23:24:07.523Z,61.33
2023-01-27T23:26:34.873Z,60.99
2023-01-27T23:29:01.964Z,60.60
2023-01-27T23:31:29.119Z,60.18
2023-01-27T23:33:56.572Z,59.85
2023-01-27T23:36:23.729Z,59.81
2023-01-27T23:38:50.750Z,58.78
2023-01-27T23:41:18.640Z,58.28
2023-01-27T23:43:51.336Z,60.38
2023-01-27T23:46:19.418Z,63.81
2023-01-27T23:48:53.399Z,65.85
2023-01-27T23:51:21.675Z,64.94
2023-01-27T23:53:49.545Z,63.91
2023-01-27T23:56:19.475Z,63.17
2023-01-27T23:58:47.677Z,62.77
